sensor_id;sensor_type;location;lat;lon;timestamp;pressure;altitude;pressure_sealevel;temperature;humidity
22649;BME280;11491;41.942;24.220;2023-07-31T00:00:17;89654.97;;;17.54;80.06
22649;BME280;11491;41.942;24.220;2023-07-31T00:02:44;89645.00;;;17.26;80.84
22649;BME280;11491;41.942;24.220;2023-07-31T00:05:11;89661.94;;;17.44;81.10
22649;BME280;11491;41.942;24.220;2023-07-31T00:07:37;89668.06;;;17.63;79.93
22649;BME280;11491;41.942;24.220;2023-07-31T00:10:06;89648.78;;;17.57;79.14
22649;BME280;11491;41.942;24.220;2023-07-31T00:12:33;89677.31;;;17.69;78.92
22649;BME280;11491;41.942;24.220;2023-07-31T00:15:00;89647.31;;;17.35;79.73
22649;BME280;11491;41.942;24.220;2023-07-31T00:17:27;89635.75;;;17.16;78.72
22649;BME280;11491;41.942;24.220;2023-07-31T00:19:54;89655.03;;;17.33;79.16
22649;BME280;11491;41.942;24.220;2023-07-31T00:22:22;89671.94;;;17.55;78.36
22649;BME280;11491;41.942;24.220;2023-07-31T00:24:49;89678.13;;;17.52;78.82
22649;BME280;11491;41.942;24.220;2023-07-31T00:27:17;89676.56;;;17.58;78.35
22649;BME280;11491;41.942;24.220;2023-07-31T00:29:43;89667.38;;;17.30;78.02
22649;BME280;11491;41.942;24.220;2023-07-31T00:32:10;89695.91;;;17.46;78.24
22649;BME280;11491;41.942;24.220;2023-07-31T00:34:37;89639.66;;;17.05;79.30
22649;BME280;11491;41.942;24.220;2023-07-31T00:37:05;89650.41;;;17.22;78.50
22649;BME280;11491;41.942;24.220;2023-07-31T00:39:34;89692.06;;;17.47;79.22
22649;BME280;11491;41.942;24.220;2023-07-31T00:42:00;89648.88;;;17.18;79.10
22649;BME280;11491;41.942;24.220;2023-07-31T00:44:29;89671.59;;;17.46;78.69
22649;BME280;11491;41.942;24.220;2023-07-31T00:46:56;89701.25;;;17.67;79.05
22649;BME280;11491;41.942;24.220;2023-07-31T00:49:25;89676.19;;;17.49;79.48
22649;BME280;11491;41.942;24.220;2023-07-31T00:51:52;89699.69;;;17.73;79.09
22649;BME280;11491;41.942;24.220;2023-07-31T00:54:19;89704.69;;;17.89;78.83
22649;BME280;11491;41.942;24.220;2023-07-31T00:56:46;89696.56;;;17.89;78.23
22649;BME280;11491;41.942;24.220;2023-07-31T00:59:14;89673.44;;;17.70;77.55
22649;BME280;11491;41.942;24.220;2023-07-31T01:01:45;89699.63;;;17.95;78.74
22649;BME280;11491;41.942;24.220;2023-07-31T01:04:13;89691.13;;;18.00;78.67
22649;BME280;11491;41.942;24.220;2023-07-31T01:06:44;89694.19;;;18.05;77.95
22649;BME280;11491;41.942;24.220;2023-07-31T01:09:22;89628.69;;;17.62;77.56
22649;BME280;11491;41.942;24.220;2023-07-31T01:11:53;89700.31;;;18.13;77.72
22649;BME280;11491;41.942;24.220;2023-07-31T01:14:20;89661.06;;;17.76;77.14
22649;BME280;11491;41.942;24.220;2023-07-31T01:16:48;89691.53;;;17.95;77.06
22649;BME280;11491;41.942;24.220;2023-07-31T01:19:18;89692.28;;;17.95;78.07
22649;BME280;11491;41.942;24.220;2023-07-31T01:22:12;89690.72;;;18.01;77.99
22649;BME280;11491;41.942;24.220;2023-07-31T01:24:54;89674.22;;;17.74;78.80
22649;BME280;11491;41.942;24.220;2023-07-31T01:28:01;89701.16;;;17.96;78.86
22649;BME280;11491;41.942;24.220;2023-07-31T01:30:54;89571.75;;;17.10;78.06
22649;BME280;11491;41.942;24.220;2023-07-31T01:33:22;89689.19;;;17.93;77.62
22649;BME280;11491;41.942;24.220;2023-07-31T01:35:49;89696.59;;;17.82;78.42
22649;BME280;11491;41.942;24.220;2023-07-31T01:38:20;89705.84;;;17.81;78.51
22649;BME280;11491;41.942;24.220;2023-07-31T01:40:51;89703.53;;;17.86;78.24
22649;BME280;11491;41.942;24.220;2023-07-31T01:43:20;89702.34;;;17.95;77.46
22649;BME280;11491;41.942;24.220;2023-07-31T01:45:46;89713.56;;;17.86;78.53
22649;BME280;11491;41.942;24.220;2023-07-31T01:48:13;89715.88;;;17.88;78.71
22649;BME280;11491;41.942;24.220;2023-07-31T01:50:40;89724.81;;;17.63;80.57
22649;BME280;11491;41.942;24.220;2023-07-31T01:53:07;89721.38;;;17.59;82.59
22649;BME280;11491;41.942;24.220;2023-07-31T01:55:33;89720.53;;;17.76;83.12
22649;BME280;11491;41.942;24.220;2023-07-31T01:58:00;89604.16;;;17.06;84.41
22649;BME280;11491;41.942;24.220;2023-07-31T02:00:28;89711.25;;;17.92;84.20
22649;BME280;11491;41.942;24.220;2023-07-31T02:02:55;89721.38;;;17.59;84.51
22649;BME280;11491;41.942;24.220;2023-07-31T02:05:22;89718.22;;;17.71;84.58
22649;BME280;11491;41.942;24.220;2023-07-31T02:07:49;89707.78;;;17.73;84.11
22649;BME280;11491;41.942;24.220;2023-07-31T02:10:15;89704.31;;;17.83;86.93
22649;BME280;11491;41.942;24.220;2023-07-31T02:12:42;89698.47;;;17.96;86.80
22649;BME280;11491;41.942;24.220;2023-07-31T02:15:09;89701.16;;;17.96;86.66
22649;BME280;11491;41.942;24.220;2023-07-31T02:17:37;89698.13;;;17.83;88.07
22649;BME280;11491;41.942;24.220;2023-07-31T02:20:05;89701.97;;;17.96;87.45
22649;BME280;11491;41.942;24.220;2023-07-31T02:22:32;89691.91;;;17.97;87.00
22649;BME280;11491;41.942;24.220;2023-07-31T02:24:59;89678.81;;;17.81;87.26
22649;BME280;11491;41.942;24.220;2023-07-31T02:27:26;89682.69;;;17.83;87.83
22649;BME280;11491;41.942;24.220;2023-07-31T02:29:53;89685.03;;;17.81;87.29
22649;BME280;11491;41.942;24.220;2023-07-31T02:32:19;89681.16;;;17.79;89.12
22649;BME280;11491;41.942;24.220;2023-07-31T02:34:48;89672.66;;;17.73;88.84
22649;BME280;11491;41.942;24.220;2023-07-31T02:37:14;89612.59;;;17.22;88.02
22649;BME280;11491;41.942;24.220;2023-07-31T02:39:41;89690.56;;;17.17;90.93
22649;BME280;11491;41.942;24.220;2023-07-31T02:42:08;89647.38;;;16.88;92.70
22649;BME280;11491;41.942;24.220;2023-07-31T02:44:35;89664.31;;;17.14;93.93
22649;BME280;11491;41.942;24.220;2023-07-31T02:47:04;89663.16;;;17.29;95.10
22649;BME280;11491;41.942;24.220;2023-07-31T02:49:31;89649.66;;;17.29;95.81
22649;BME280;11491;41.942;24.220;2023-07-31T02:51:59;89641.13;;;17.38;95.38
22649;BME280;11491;41.942;24.220;2023-07-31T02:54:26;89642.25;;;17.40;95.05
22649;BME280;11491;41.942;24.220;2023-07-31T02:56:52;89630.66;;;17.51;93.72
22649;BME280;11491;41.942;24.220;2023-07-31T02:59:20;89645.63;;;17.66;93.27
22649;BME280;11491;41.942;24.220;2023-07-31T03:01:47;89638.69;;;17.69;92.48
22649;BME280;11491;41.942;24.220;2023-07-31T03:04:13;89618.34;;;17.42;94.73
22649;BME280;11491;41.942;24.220;2023-07-31T03:06:52;89595.97;;;17.31;95.01
22649;BME280;11491;41.942;24.220;2023-07-31T03:09:20;89627.13;;;17.64;95.33
22649;BME280;11491;41.942;24.220;2023-07-31T03:11:51;89604.03;;;17.46;95.44
22649;BME280;11491;41.942;24.220;2023-07-31T03:14:26;89560.13;;;17.27;94.49
22649;BME280;11491;41.942;24.220;2023-07-31T03:16:53;89555.50;;;17.20;94.08
22649;BME280;11491;41.942;24.220;2023-07-31T03:19:20;89608.63;;;17.56;93.95
22649;BME280;11491;41.942;24.220;2023-07-31T03:21:57;89569.38;;;17.19;93.88
22649;BME280;11491;41.942;24.220;2023-07-31T03:24:40;89601.69;;;17.55;93.85
22649;BME280;11491;41.942;24.220;2023-07-31T03:27:10;89514.72;;;16.86;94.01
22649;BME280;11491;41.942;24.220;2023-07-31T03:29:37;89560.94;;;17.17;94.40
22649;BME280;11491;41.942;24.220;2023-07-31T03:32:04;89634.81;;;17.84;93.87
22649;BME280;11491;41.942;24.220;2023-07-31T03:34:31;89640.22;;;17.80;93.79
22649;BME280;11491;41.942;24.220;2023-07-31T03:36:58;89648.69;;;17.82;93.07
22649;BME280;11491;41.942;24.220;2023-07-31T03:39:25;89647.91;;;17.78;93.41
22649;BME280;11491;41.942;24.220;2023-07-31T03:41:53;89653.34;;;17.82;93.13
22649;BME280;11491;41.942;24.220;2023-07-31T03:44:20;89644.84;;;17.76;93.04
22649;BME280;11491;41.942;24.220;2023-07-31T03:46:46;89644.84;;;17.76;91.64
22649;BME280;11491;41.942;24.220;2023-07-31T03:49:13;89616.78;;;17.41;92.46
22649;BME280;11491;41.942;24.220;2023-07-31T03:51:40;89655.72;;;17.55;93.43
22649;BME280;11491;41.942;24.220;2023-07-31T03:54:07;89658.78;;;17.60;92.32
22649;BME280;11491;41.942;24.220;2023-07-31T03:56:34;89584.06;;;17.18;92.41
22649;BME280;11491;41.942;24.220;2023-07-31T03:59:02;89597.19;;;17.16;93.87
22649;BME280;11491;41.942;24.220;2023-07-31T04:01:29;89653.41;;;17.64;93.90
22649;BME280;11491;41.942;24.220;2023-07-31T04:03:55;89646.84;;;17.51;93.35
22649;BME280;11491;41.942;24.220;2023-07-31T04:06:22;89671.94;;;17.62;93.90
22649;BME280;11491;41.942;24.220;2023-07-31T04:08:49;89667.69;;;17.64;95.16
22649;BME280;11491;41.942;24.220;2023-07-31T04:11:16;89676.91;;;17.74;95.13
22649;BME280;11491;41.942;24.220;2023-07-31T04:13:42;89677.28;;;17.80;94.87
22649;BME280;11491;41.942;24.220;2023-07-31T04:16:11;89691.19;;;17.82;94.32
22649;BME280;11491;41.942;24.220;2023-07-31T04:18:40;89693.13;;;17.74;94.90
22649;BME280;11491;41.942;24.220;2023-07-31T04:21:15;89690.44;;;17.81;94.96
22649;BME280;11491;41.942;24.220;2023-07-31T04:23:43;89691.16;;;17.78;96.30
22649;BME280;11491;41.942;24.220;2023-07-31T04:26:09;89700.81;;;17.90;96.08
22649;BME280;11491;41.942;24.220;2023-07-31T04:28:36;89680.34;;;17.78;95.51
22649;BME280;11491;41.942;24.220;2023-07-31T04:31:04;89707.41;;;17.89;96.10
22649;BME280;11491;41.942;24.220;2023-07-31T04:33:37;89665.72;;;17.65;96.10
22649;BME280;11491;41.942;24.220;2023-07-31T04:36:04;89707.38;;;17.93;96.33
22649;BME280;11491;41.942;24.220;2023-07-31T04:38:31;89705.03;;;17.91;96.52
22649;BME280;11491;41.942;24.220;2023-07-31T04:40:57;89646.53;;;17.31;96.65
22649;BME280;11491;41.942;24.220;2023-07-31T04:43:24;89727.44;;;17.99;96.55
22649;BME280;11491;41.942;24.220;2023-07-31T04:45:51;89715.84;;;18.02;95.18
22649;BME280;11491;41.942;24.220;2023-07-31T04:48:19;89732.00;;;18.13;95.47
22649;BME280;11491;41.942;24.220;2023-07-31T04:50:47;89738.94;;;18.17;95.35
22649;BME280;11491;41.942;24.220;2023-07-31T04:53:14;89734.31;;;18.21;96.57
22649;BME280;11491;41.942;24.220;2023-07-31T04:55:41;89715.72;;;18.23;96.04
22649;BME280;11491;41.942;24.220;2023-07-31T04:58:07;89691.78;;;18.18;95.33
22649;BME280;11491;41.942;24.220;2023-07-31T05:00:34;89723.34;;;18.43;94.54
22649;BME280;11491;41.942;24.220;2023-07-31T05:03:01;89713.34;;;18.40;91.59
22649;BME280;11491;41.942;24.220;2023-07-31T05:05:28;89718.75;;;18.40;91.48
22649;BME280;11491;41.942;24.220;2023-07-31T05:07:56;89710.94;;;18.52;90.79
22649;BME280;11491;41.942;24.220;2023-07-31T05:10:23;89683.63;;;18.25;90.38
22649;BME280;11491;41.942;24.220;2023-07-31T05:12:49;89710.22;;;18.45;91.52
22649;BME280;11491;41.942;24.220;2023-07-31T05:15:16;89711.38;;;18.44;92.10
22649;BME280;11491;41.942;24.220;2023-07-31T05:17:43;89709.44;;;18.44;92.67
22649;BME280;11491;41.942;24.220;2023-07-31T05:20:10;89702.84;;;18.49;92.47
22649;BME280;11491;41.942;24.220;2023-07-31T05:22:38;89696.63;;;18.52;93.60
22649;BME280;11491;41.942;24.220;2023-07-31T05:25:07;89679.34;;;18.35;92.92
22649;BME280;11491;41.942;24.220;2023-07-31T05:27:34;89696.94;;;18.68;90.14
22649;BME280;11491;41.942;24.220;2023-07-31T05:30:00;89699.63;;;18.68;90.56
22649;BME280;11491;41.942;24.220;2023-07-31T05:32:27;89707.38;;;18.63;89.68
22649;BME280;11491;41.942;24.220;2023-07-31T05:34:54;89712.50;;;18.50;90.43
22649;BME280;11491;41.942;24.220;2023-07-31T05:37:21;89677.03;;;18.34;90.65
22649;BME280;11491;41.942;24.220;2023-07-31T05:39:48;89712.38;;;18.71;90.73
22649;BME280;11491;41.942;24.220;2023-07-31T05:42:16;89712.78;;;18.66;88.86
22649;BME280;11491;41.942;24.220;2023-07-31T05:44:43;89713.13;;;18.79;88.45
22649;BME280;11491;41.942;24.220;2023-07-31T05:47:10;89700.72;;;18.82;87.98
22649;BME280;11491;41.942;24.220;2023-07-31T05:49:37;89711.31;;;19.10;89.36
22649;BME280;11491;41.942;24.220;2023-07-31T05:52:04;89712.00;;;19.22;86.86
22649;BME280;11491;41.942;24.220;2023-07-31T05:54:31;89720.34;;;19.42;86.17
22649;BME280;11491;41.942;24.220;2023-07-31T05:56:59;89712.47;;;19.54;85.50
22649;BME280;11491;41.942;24.220;2023-07-31T05:59:27;89737.16;;;19.71;85.17
22649;BME280;11491;41.942;24.220;2023-07-31T06:01:54;89727.97;;;19.95;84.60
22649;BME280;11491;41.942;24.220;2023-07-31T06:04:20;89730.44;;;20.17;84.70
22649;BME280;11491;41.942;24.220;2023-07-31T06:06:48;89689.63;;;19.93;85.03
22649;BME280;11491;41.942;24.220;2023-07-31T06:09:15;89733.63;;;20.42;85.04
22649;BME280;11491;41.942;24.220;2023-07-31T06:11:41;89717.69;;;20.44;85.01
22649;BME280;11491;41.942;24.220;2023-07-31T06:14:08;89733.00;;;20.62;83.16
22649;BME280;11491;41.942;24.220;2023-07-31T06:16:37;89731.63;;;20.47;84.96
22649;BME280;11491;41.942;24.220;2023-07-31T06:19:03;89734.69;;;20.49;85.43
22649;BME280;11491;41.942;24.220;2023-07-31T06:21:30;89732.22;;;20.61;84.64
22649;BME280;11491;41.942;24.220;2023-07-31T06:23:57;89735.16;;;20.74;85.04
22649;BME280;11491;41.942;24.220;2023-07-31T06:26:24;89731.09;;;20.90;85.28
22649;BME280;11491;41.942;24.220;2023-07-31T06:28:50;89734.66;;;21.10;85.48
22649;BME280;11491;41.942;24.220;2023-07-31T06:31:17;89732.78;;;21.30;85.66
22649;BME280;11491;41.942;24.220;2023-07-31T06:33:49;89727.16;;;21.45;84.24
22649;BME280;11491;41.942;24.220;2023-07-31T06:36:16;89732.28;;;21.63;79.66
22649;BME280;11491;41.942;24.220;2023-07-31T06:38:42;89724.16;;;21.83;78.54
22649;BME280;11491;41.942;24.220;2023-07-31T06:41:09;89720.69;;;22.02;78.55
22649;BME280;11491;41.942;24.220;2023-07-31T06:43:36;89719.84;;;22.05;77.47
22649;BME280;11491;41.942;24.220;2023-07-31T06:46:04;89719.53;;;22.23;78.19
22649;BME280;11491;41.942;24.220;2023-07-31T06:48:32;89714.56;;;22.38;72.53
22649;BME280;11491;41.942;24.220;2023-07-31T06:51:00;89700.47;;;22.43;66.41
22649;BME280;11491;41.942;24.220;2023-07-31T06:53:28;89708.97;;;22.45;65.44
22649;BME280;11491;41.942;24.220;2023-07-31T06:55:55;89714.44;;;22.45;67.77
22649;BME280;11491;41.942;24.220;2023-07-31T06:58:22;89721.97;;;22.57;68.97
22649;BME280;11491;41.942;24.220;2023-07-31T07:00:48;89706.69;;;22.80;67.32
22649;BME280;11491;41.942;24.220;2023-07-31T07:03:17;89698.34;;;22.71;68.48
22649;BME280;11491;41.942;24.220;2023-07-31T07:05:44;89705.16;;;22.79;69.39
22649;BME280;11491;41.942;24.220;2023-07-31T07:08:12;89711.84;;;22.94;69.20
22649;BME280;11491;41.942;24.220;2023-07-31T07:10:39;89705.41;;;23.05;65.02
22649;BME280;11491;41.942;24.220;2023-07-31T07:13:05;89702.34;;;23.19;65.38
22649;BME280;11491;41.942;24.220;2023-07-31T07:15:32;89714.28;;;23.25;66.20
22649;BME280;11491;41.942;24.220;2023-07-31T07:17:59;89708.66;;;23.32;63.47
22649;BME280;11491;41.942;24.220;2023-07-31T07:20:26;89708.47;;;23.39;66.08
22649;BME280;11491;41.942;24.220;2023-07-31T07:22:52;89710.03;;;23.40;67.36
22649;BME280;11491;41.942;24.220;2023-07-31T07:25:20;89713.78;;;23.47;64.72
22649;BME280;11491;41.942;24.220;2023-07-31T07:27:47;89719.75;;;23.41;64.65
22649;BME280;11491;41.942;24.220;2023-07-31T07:30:14;89716.31;;;23.37;65.46
22649;BME280;11491;41.942;24.220;2023-07-31T07:32:41;89712.22;;;23.29;66.31
22649;BME280;11491;41.942;24.220;2023-07-31T07:35:08;89717.28;;;23.31;67.59
22649;BME280;11491;41.942;24.220;2023-07-31T07:37:35;89721.09;;;23.33;67.60
22649;BME280;11491;41.942;24.220;2023-07-31T07:40:01;89710.88;;;23.37;66.55
22649;BME280;11491;41.942;24.220;2023-07-31T07:42:30;89717.44;;;23.56;67.57
22649;BME280;11491;41.942;24.220;2023-07-31T07:44:56;89718.72;;;23.68;68.63
22649;BME280;11491;41.942;24.220;2023-07-31T07:47:23;89705.56;;;23.79;67.63
22649;BME280;11491;41.942;24.220;2023-07-31T07:49:50;89730.50;;;24.11;68.80
22649;BME280;11491;41.942;24.220;2023-07-31T07:52:16;89723.88;;;24.24;67.02
22649;BME280;11491;41.942;24.220;2023-07-31T07:54:43;89734.28;;;24.29;62.99
22649;BME280;11491;41.942;24.220;2023-07-31T07:57:10;89738.03;;;24.36;61.85
22649;BME280;11491;41.942;24.220;2023-07-31T07:59:38;89732.47;;;24.10;63.16
22649;BME280;11491;41.942;24.220;2023-07-31T08:02:05;89731.50;;;23.88;65.67
22649;BME280;11491;41.942;24.220;2023-07-31T08:04:32;89743.53;;;23.74;67.14
22649;BME280;11491;41.942;24.220;2023-07-31T08:06:58;89721.78;;;23.21;67.55
22649;BME280;11491;41.942;24.220;2023-07-31T08:09:25;89734.97;;;23.06;67.80
22649;BME280;11491;41.942;24.220;2023-07-31T08:11:52;89742.03;;;23.04;68.96
22649;BME280;11491;41.942;24.220;2023-07-31T08:14:19;89736.09;;;23.25;70.28
22649;BME280;11491;41.942;24.220;2023-07-31T08:16:48;89705.94;;;23.49;70.24
22649;BME280;11491;41.942;24.220;2023-07-31T08:19:14;89738.16;;;23.86;69.10
22649;BME280;11491;41.942;24.220;2023-07-31T08:21:41;89730.47;;;23.98;67.40
22649;BME280;11491;41.942;24.220;2023-07-31T08:24:08;89727.69;;;24.14;66.94
22649;BME280;11491;41.942;24.220;2023-07-31T08:26:35;89706.50;;;24.18;67.95
22649;BME280;11491;41.942;24.220;2023-07-31T08:29:04;89734.22;;;24.62;66.56
22649;BME280;11491;41.942;24.220;2023-07-31T08:31:31;89738.97;;;24.87;64.19
22649;BME280;11491;41.942;24.220;2023-07-31T08:33:59;89733.38;;;24.91;65.50
22649;BME280;11491;41.942;24.220;2023-07-31T08:36:26;89735.56;;;24.83;64.42
22649;BME280;11491;41.942;24.220;2023-07-31T08:38:53;89740.03;;;24.77;64.29
22649;BME280;11491;41.942;24.220;2023-07-31T08:41:27;89738.44;;;24.50;64.94
22649;BME280;11491;41.942;24.220;2023-07-31T08:43:58;89741.19;;;24.63;65.25
22649;BME280;11491;41.942;24.220;2023-07-31T08:46:26;89744.47;;;24.58;65.29
22649;BME280;11491;41.942;24.220;2023-07-31T08:48:54;89746.72;;;24.89;66.26
22649;BME280;11491;41.942;24.220;2023-07-31T08:51:25;89738.03;;;25.45;63.46
22649;BME280;11491;41.942;24.220;2023-07-31T08:53:52;89733.97;;;25.63;59.67
22649;BME280;11491;41.942;24.220;2023-07-31T08:56:19;89725.63;;;25.79;60.47
22649;BME280;11491;41.942;24.220;2023-07-31T08:58:47;89685.38;;;25.41;60.67
22649;BME280;11491;41.942;24.220;2023-07-31T09:01:16;89735.19;;;25.62;59.92
22649;BME280;11491;41.942;24.220;2023-07-31T09:03:44;89736.06;;;25.46;58.70
22649;BME280;11491;41.942;24.220;2023-07-31T09:06:12;89727.28;;;25.12;58.61
22649;BME280;11491;41.942;24.220;2023-07-31T09:08:42;89725.50;;;24.93;59.70
22649;BME280;11491;41.942;24.220;2023-07-31T09:11:09;89730.63;;;24.78;60.95
22649;BME280;11491;41.942;24.220;2023-07-31T09:13:36;89719.84;;;25.00;60.57
22649;BME280;11491;41.942;24.220;2023-07-31T09:16:07;89731.25;;;25.37;62.16
22649;BME280;11491;41.942;24.220;2023-07-31T09:18:52;89727.97;;;25.42;56.48
22649;BME280;11491;41.942;24.220;2023-07-31T09:21:20;89732.78;;;25.38;59.13
22649;BME280;11491;41.942;24.220;2023-07-31T09:23:49;89723.78;;;25.50;58.27
22649;BME280;11491;41.942;24.220;2023-07-31T09:26:29;89735.06;;;25.65;57.34
22649;BME280;11491;41.942;24.220;2023-07-31T09:28:56;89725.44;;;25.35;57.18
22649;BME280;11491;41.942;24.220;2023-07-31T09:31:32;89729.22;;;24.99;57.90
22649;BME280;11491;41.942;24.220;2023-07-31T09:33:59;89728.78;;;24.88;58.98
22649;BME280;11491;41.942;24.220;2023-07-31T09:36:29;89724.81;;;24.76;57.62
22649;BME280;11491;41.942;24.220;2023-07-31T09:39:01;89734.47;;;24.81;59.33
22649;BME280;11491;41.942;24.220;2023-07-31T09:41:29;89726.41;;;25.15;60.79
22649;BME280;11491;41.942;24.220;2023-07-31T09:43:56;89719.16;;;25.73;56.68
22649;BME280;11491;41.942;24.220;2023-07-31T09:46:26;89718.50;;;25.94;55.48
22649;BME280;11491;41.942;24.220;2023-07-31T09:49:03;89719.66;;;26.06;52.86
22649;BME280;11491;41.942;24.220;2023-07-31T09:51:31;89716.88;;;25.71;53.63
22649;BME280;11491;41.942;24.220;2023-07-31T09:54:09;89722.47;;;25.68;56.07
22649;BME280;11491;41.942;24.220;2023-07-31T09:56:42;89706.22;;;25.86;56.50
22649;BME280;11491;41.942;24.220;2023-07-31T09:59:11;89712.59;;;26.53;54.60
22649;BME280;11491;41.942;24.220;2023-07-31T10:01:40;89684.03;;;26.63;53.15
22649;BME280;11491;41.942;24.220;2023-07-31T10:04:07;89704.44;;;26.62;51.72
22649;BME280;11491;41.942;24.220;2023-07-31T10:06:35;89706.84;;;26.60;53.25
22649;BME280;11491;41.942;24.220;2023-07-31T10:09:07;89698.31;;;26.58;50.51
22649;BME280;11491;41.942;24.220;2023-07-31T10:11:38;89704.28;;;26.21;52.28
22649;BME280;11491;41.942;24.220;2023-07-31T10:14:05;89705.25;;;25.80;53.87
22649;BME280;11491;41.942;24.220;2023-07-31T10:16:34;89676.50;;;25.11;54.03
22649;BME280;11491;41.942;24.220;2023-07-31T10:19:01;89651.78;;;24.51;56.56
22649;BME280;11491;41.942;24.220;2023-07-31T10:21:31;89704.69;;;24.57;60.86
22649;BME280;11491;41.942;24.220;2023-07-31T10:24:02;89690.19;;;24.99;56.33
22649;BME280;11491;41.942;24.220;2023-07-31T10:26:31;89685.03;;;25.65;59.52
22649;BME280;11491;41.942;24.220;2023-07-31T10:28:59;89684.19;;;26.03;56.19
22649;BME280;11491;41.942;24.220;2023-07-31T10:31:27;89686.56;;;26.35;57.65
22649;BME280;11491;41.942;24.220;2023-07-31T10:33:54;89694.13;;;26.66;53.08
22649;BME280;11491;41.942;24.220;2023-07-31T10:36:22;89697.69;;;26.54;52.44
22649;BME280;11491;41.942;24.220;2023-07-31T10:38:49;89685.25;;;26.05;52.53
22649;BME280;11491;41.942;24.220;2023-07-31T10:41:17;89701.81;;;26.02;53.50
22649;BME280;11491;41.942;24.220;2023-07-31T10:43:46;89699.91;;;25.64;54.46
22649;BME280;11491;41.942;24.220;2023-07-31T10:46:14;89703.16;;;25.84;56.59
22649;BME280;11491;41.942;24.220;2023-07-31T10:48:41;89699.53;;;26.00;53.15
22649;BME280;11491;41.942;24.220;2023-07-31T10:51:10;89700.47;;;25.71;52.11
22649;BME280;11491;41.942;24.220;2023-07-31T10:53:38;89699.16;;;25.50;53.82
22649;BME280;11491;41.942;24.220;2023-07-31T10:56:07;89692.72;;;25.19;54.22
22649;BME280;11491;41.942;24.220;2023-07-31T10:58:34;89672.13;;;24.76;54.93
22649;BME280;11491;41.942;24.220;2023-07-31T11:01:05;89696.19;;;24.81;56.56
22649;BME280;11491;41.942;24.220;2023-07-31T11:03:42;89689.09;;;24.96;57.32
22649;BME280;11491;41.942;24.220;2023-07-31T11:06:10;89692.28;;;25.07;56.29
22649;BME280;11491;41.942;24.220;2023-07-31T11:08:42;89691.88;;;25.22;54.86
22649;BME280;11491;41.942;24.220;2023-07-31T11:11:11;89686.81;;;25.07;54.96
22649;BME280;11491;41.942;24.220;2023-07-31T11:13:43;89676.84;;;25.13;54.38
22649;BME280;11491;41.942;24.220;2023-07-31T11:16:13;89624.03;;;24.65;54.09
22649;BME280;11491;41.942;24.220;2023-07-31T11:18:42;89685.81;;;25.14;54.18
22649;BME280;11491;41.942;24.220;2023-07-31T11:21:15;89696.69;;;25.18;51.67
22649;BME280;11491;41.942;24.220;2023-07-31T11:26:47;89584.38;;;24.06;54.42
22649;BME280;11491;41.942;24.220;2023-07-31T11:29:27;89683.53;;;24.87;53.14
22649;BME280;11491;41.942;24.220;2023-07-31T11:31:59;89623.59;;;24.54;52.95
22649;BME280;11491;41.942;24.220;2023-07-31T11:34:26;89574.56;;;24.21;53.21
22649;BME280;11491;41.942;24.220;2023-07-31T11:37:11;89658.69;;;24.68;53.91
22649;BME280;11491;41.942;24.220;2023-07-31T11:39:59;89682.00;;;24.86;53.14
22649;BME280;11491;41.942;24.220;2023-07-31T11:42:32;89592.28;;;24.29;54.22
22649;BME280;11491;41.942;24.220;2023-07-31T11:45:02;89634.00;;;24.85;54.07
22649;BME280;11491;41.942;24.220;2023-07-31T11:47:32;89636.94;;;25.29;50.64
22649;BME280;11491;41.942;24.220;2023-07-31T11:50:00;89632.47;;;25.70;54.03
22649;BME280;11491;41.942;24.220;2023-07-31T11:52:27;89626.28;;;26.57;45.51
22649;BME280;11491;41.942;24.220;2023-07-31T11:54:55;89573.03;;;26.99;48.85
22649;BME280;11491;41.942;24.220;2023-07-31T11:57:23;89572.72;;;26.66;43.39
22649;BME280;11491;41.942;24.220;2023-07-31T11:59:50;89587.19;;;26.35;46.26
22649;BME280;11491;41.942;24.220;2023-07-31T12:02:18;89629.41;;;26.47;44.38
22649;BME280;11491;41.942;24.220;2023-07-31T12:04:48;89657.13;;;26.49;46.12
22649;BME280;11491;41.942;24.220;2023-07-31T12:07:15;89557.09;;;25.78;44.33
22649;BME280;11491;41.942;24.220;2023-07-31T12:09:51;89641.22;;;26.34;46.75
22649;BME280;11491;41.942;24.220;2023-07-31T12:12:20;89620.13;;;26.75;47.53
22649;BME280;11491;41.942;24.220;2023-07-31T12:14:47;89536.38;;;26.12;46.16
22649;BME280;11491;41.942;24.220;2023-07-31T12:17:16;89554.78;;;25.89;46.98
22649;BME280;11491;41.942;24.220;2023-07-31T12:19:43;89649.16;;;25.97;48.04
22649;BME280;11491;41.942;24.220;2023-07-31T12:22:16;89554.28;;;24.86;50.07
22649;BME280;11491;41.942;24.220;2023-07-31T12:24:43;89536.28;;;24.50;49.83
22649;BME280;11491;41.942;24.220;2023-07-31T12:27:11;89654.00;;;25.07;51.46
22649;BME280;11491;41.942;24.220;2023-07-31T12:29:38;89595.50;;;24.92;52.29
22649;BME280;11491;41.942;24.220;2023-07-31T12:32:25;89623.84;;;25.58;51.85
22649;BME280;11491;41.942;24.220;2023-07-31T12:34:54;89550.44;;;25.79;49.93
22649;BME280;11491;41.942;24.220;2023-07-31T12:37:25;89597.63;;;26.27;49.94
22649;BME280;11491;41.942;24.220;2023-07-31T12:39:52;89624.00;;;26.34;48.47
22649;BME280;11491;41.942;24.220;2023-07-31T12:42:23;89544.53;;;26.03;48.85
22649;BME280;11491;41.942;24.220;2023-07-31T12:44:52;89579.66;;;26.79;47.48
22649;BME280;11491;41.942;24.220;2023-07-31T12:47:19;89524.88;;;26.89;45.37
22649;BME280;11491;41.942;24.220;2023-07-31T12:49:46;89567.94;;;27.28;44.29
22649;BME280;11491;41.942;24.220;2023-07-31T12:52:13;89513.25;;;26.84;42.99
22649;BME280;11491;41.942;24.220;2023-07-31T12:54:41;89527.50;;;26.61;43.50
22649;BME280;11491;41.942;24.220;2023-07-31T12:57:30;89558.44;;;26.39;43.51
22649;BME280;11491;41.942;24.220;2023-07-31T13:00:14;89543.63;;;26.06;45.99